createdAt,value
2019-01-02T00:01:01.040Z,3.93
2019-01-02T00:03:31.329Z,4.10
2019-01-02T00:06:02.022Z,4.00
2019-01-02T00:08:32.378Z,4.43
2019-01-02T00:11:03.226Z,4.13
2019-01-02T00:13:33.700Z,3.90
2019-01-02T00:16:04.025Z,3.80
2019-01-02T00:18:37.458Z,4.00
2019-01-02T00:21:07.874Z,3.07
2019-01-02T00:23:38.497Z,3.50
2019-01-02T00:26:08.798Z,2.83
2019-01-02T00:28:39.153Z,3.30
2019-01-02T00:31:09.738Z,2.97
2019-01-02T00:33:40.093Z,3.13
2019-01-02T00:36:10.764Z,3.03
2019-01-02T00:38:41.023Z,2.83
2019-01-02T00:41:11.772Z,3.00
2019-01-02T00:43:42.112Z,2.63
2019-01-02T00:46:12.840Z,3.30
2019-01-02T00:48:43.349Z,2.80
2019-01-02T00:51:13.595Z,3.30
2019-01-02T00:53:43.887Z,3.13
2019-01-02T00:56:14.081Z,4.07
2019-01-02T00:58:44.435Z,3.43
2019-01-02T01:01:14.716Z,3.60
2019-01-02T01:03:44.988Z,3.50
2019-01-02T01:06:15.285Z,3.40
2019-01-02T01:08:45.583Z,3.30
2019-01-02T01:11:15.805Z,3.10
2019-01-02T01:13:46.007Z,2.90
2019-01-02T01:16:16.276Z,4.00
2019-01-02T01:18:46.585Z,3.27
2019-01-02T01:21:16.912Z,3.57
2019-01-02T01:23:47.778Z,3.13
2019-01-02T01:26:18.454Z,2.83
2019-01-02T01:28:49.054Z,3.17
2019-01-02T01:31:19.404Z,3.03
2019-01-02T01:33:49.731Z,2.80
2019-01-02T01:36:20.492Z,2.63
2019-01-02T01:38:50.804Z,3.23
2019-01-02T01:41:21.087Z,2.57
2019-01-02T01:43:51.993Z,2.03
2019-01-02T01:46:22.229Z,2.60
2019-01-02T01:48:53.103Z,2.33
2019-01-02T01:51:23.366Z,2.40
2019-01-02T01:53:53.623Z,2.17
2019-01-02T01:56:24.252Z,2.90
2019-01-02T01:58:54.556Z,3.00
2019-01-02T02:01:24.801Z,2.63
2019-01-02T02:03:55.615Z,3.03
2019-01-02T02:06:25.914Z,2.90
2019-01-02T02:08:56.205Z,3.50
2019-01-02T02:11:26.376Z,3.00
2019-01-02T02:13:56.649Z,2.97
2019-01-02T02:16:27.343Z,3.57
2019-01-02T02:18:57.687Z,3.70
2019-01-02T02:21:28.058Z,3.90
2019-01-02T02:23:58.615Z,4.10
2019-01-02T02:26:28.889Z,4.27
2019-01-02T02:28:59.199Z,5.53
2019-01-02T02:31:29.471Z,4.57
2019-01-02T02:33:59.888Z,4.23
2019-01-02T02:36:30.644Z,4.87
2019-01-02T02:39:02.563Z,4.90
2019-01-02T02:41:33.392Z,4.73
2019-01-02T02:44:04.290Z,5.57
2019-01-02T02:46:34.846Z,6.00
2019-01-02T02:49:05.130Z,6.23
2019-01-02T02:51:35.694Z,6.73
2019-01-02T02:54:06.494Z,6.83
2019-01-02T02:56:37.358Z,6.93
2019-01-02T02:59:08.182Z,6.47
2019-01-02T03:01:39.081Z,7.10
2019-01-02T03:04:10.097Z,8.80
2019-01-02T03:06:40.796Z,8.03
2019-01-02T03:09:11.592Z,7.63
2019-01-02T03:11:41.836Z,7.00
2019-01-02T03:14:12.171Z,6.20
2019-01-02T03:16:42.833Z,5.80
2019-01-02T03:19:13.649Z,4.80
2019-01-02T03:21:44.301Z,4.50
2019-01-02T03:24:14.912Z,4.47
2019-01-02T03:26:45.261Z,3.80
2019-01-02T03:29:15.612Z,3.73
2019-01-02T03:31:46.535Z,3.90
2019-01-02T03:34:17.153Z,3.90
2019-01-02T03:36:47.434Z,3.50
2019-01-02T03:39:17.756Z,3.60
2019-01-02T03:41:47.989Z,3.67
2019-01-02T03:44:18.382Z,3.57
2019-01-02T03:46:49.729Z,4.07
2019-01-02T03:49:20.038Z,3.83
2019-01-02T03:51:50.307Z,3.03
2019-01-02T03:54:20.894Z,2.93
2019-01-02T03:56:51.126Z,3.03
2019-01-02T03:59:21.473Z,3.73
2019-01-02T04:01:52.052Z,3.70
2019-01-02T04:04:23.232Z,3.77
2019-01-02T04:06:53.838Z,4.60
2019-01-02T04:09:25.138Z,4.17
2019-01-02T04:11:55.322Z,4.07
2019-01-02T04:14:25.636Z,4.33
2019-01-02T04:16:55.989Z,4.43
2019-01-02T04:19:26.263Z,4.40
2019-01-02T04:21:56.541Z,3.57
2019-01-02T04:24:26.849Z,4.00
2019-01-02T04:26:57.159Z,4.00
2019-01-02T04:29:27.438Z,3.90
2019-01-02T04:31:57.677Z,3.60
2019-01-02T04:34:28.286Z,3.83
2019-01-02T04:36:58.512Z,3.07
2019-01-02T04:39:28.826Z,3.40
2019-01-02T04:41:59.066Z,3.03
2019-01-02T04:44:29.357Z,3.30
2019-01-02T04:46:59.674Z,3.23
2019-01-02T04:49:29.924Z,2.93
2019-01-02T04:52:00.250Z,3.13
2019-01-02T04:54:30.497Z,3.00
2019-01-02T04:57:01.052Z,2.77
2019-01-02T04:59:31.429Z,3.00
2019-01-02T05:02:01.702Z,2.00
2019-01-02T05:04:31.938Z,2.80
2019-01-02T05:07:02.296Z,2.57
2019-01-02T05:09:32.945Z,2.23
2019-01-02T05:12:03.285Z,2.80
2019-01-02T05:14:33.581Z,2.77
2019-01-02T05:17:03.921Z,2.50
2019-01-02T05:19:34.213Z,2.60
2019-01-02T05:22:04.515Z,2.10
2019-01-02T05:24:34.798Z,2.20
2019-01-02T05:27:05.157Z,1.73
2019-01-02T05:29:35.487Z,2.23
2019-01-02T05:32:05.793Z,2.20
2019-01-02T05:34:36.013Z,2.50
2019-01-02T05:37:06.237Z,2.23
2019-01-02T05:39:36.404Z,1.70
2019-01-02T05:42:06.669Z,1.90
2019-01-02T05:44:36.957Z,2.10
2019-01-02T05:47:07.243Z,1.77
2019-01-02T05:49:37.471Z,2.07
2019-01-02T05:52:07.768Z,2.00
2019-01-02T05:54:38.012Z,1.83
2019-01-02T05:57:08.290Z,2.27
2019-01-02T05:59:38.565Z,2.37
2019-01-02T06:02:08.809Z,1.90
2019-01-02T06:04:39.107Z,2.30
2019-01-02T06:07:09.401Z,2.20
2019-01-02T06:09:39.702Z,1.73
2019-01-02T06:12:10.215Z,2.03
2019-01-02T06:14:40.555Z,1.50
2019-01-02T06:17:10.767Z,2.00
2019-01-02T06:19:41.011Z,1.90
2019-01-02T06:22:11.360Z,2.00
2019-01-02T06:24:41.602Z,1.90
2019-01-02T06:27:11.876Z,2.00
2019-01-02T06:29:42.123Z,1.73
2019-01-02T06:32:13.500Z,1.77
2019-01-02T06:34:43.737Z,2.23
2019-01-02T06:37:14.103Z,2.27
2019-01-02T06:39:44.346Z,2.20
2019-01-02T06:42:14.721Z,1.93
2019-01-02T06:44:44.982Z,1.97
2019-01-02T06:47:15.292Z,1.87
2019-01-02T06:49:45.479Z,2.00
2019-01-02T06:52:15.762Z,2.40
2019-01-02T06:54:46.009Z,2.00
2019-01-02T06:57:16.360Z,2.10
2019-01-02T06:59:46.581Z,1.80
2019-01-02T07:02:16.866Z,1.33
2019-01-02T07:04:47.170Z,1.80
2019-01-02T07:07:17.406Z,1.30
2019-01-02T07:09:47.600Z,1.40
2019-01-02T07:12:17.900Z,1.70
2019-01-02T07:14:48.190Z,1.70
2019-01-02T07:17:18.493Z,1.30
2019-01-02T07:19:48.733Z,1.50
2019-01-02T07:22:19.052Z,1.93
2019-01-02T07:24:49.352Z,2.10
2019-01-02T07:27:19.649Z,1.97
2019-01-02T07:29:51.948Z,2.10
2019-01-02T07:32:24.703Z,3.43
2019-01-02T07:35:30.369Z,4.87
2019-01-02T07:38:48.304Z,5.37
2019-01-02T07:42:01.459Z,3.80
2019-01-02T07:45:09.974Z,5.77
2019-01-02T07:48:21.278Z,4.93
2019-01-02T07:51:32.195Z,4.40
2019-01-02T07:54:30.611Z,3.67
2019-01-02T07:57:37.795Z,4.57
2019-01-02T08:00:42.239Z,3.60
2019-01-02T08:03:48.303Z,3.47
2019-01-02T08:06:43.599Z,4.80
2019-01-02T08:10:01.338Z,3.30
2019-01-02T08:13:11.243Z,3.03
2019-01-02T08:16:32.885Z,2.83
2019-01-02T08:19:46.523Z,2.17
2019-01-02T08:23:01.433Z,1.30
2019-01-02T08:26:15.253Z,1.23
2019-01-02T08:29:25.270Z,1.57
2019-01-02T08:32:30.066Z,1.00
2019-01-02T08:35:48.753Z,1.70
2019-01-02T08:39:10.135Z,1.30
2019-01-02T08:42:42.485Z,1.10
2019-01-02T08:45:58.347Z,0.90
2019-01-02T08:48:57.168Z,1.23
2019-01-02T08:52:20.112Z,1.50
2019-01-02T08:55:27.498Z,1.33
2019-01-02T08:58:38.878Z,1.30
2019-01-02T09:01:39.661Z,1.50
2019-01-02T09:05:05.978Z,1.37
2019-01-02T09:08:39.702Z,1.40
2019-01-02T09:11:53.777Z,1.13
2019-01-02T09:15:10.090Z,1.80
2019-01-02T09:18:17.271Z,1.80
2019-01-02T09:21:35.676Z,1.77
2019-01-02T09:24:49.432Z,1.43
2019-01-02T09:27:44.196Z,1.73
2019-01-02T09:31:11.476Z,2.00
2019-01-02T09:34:14.722Z,1.60
2019-01-02T09:37:25.777Z,1.47
2019-01-02T09:40:47.881Z,1.67
2019-01-02T09:43:59.700Z,1.65
2019-01-02T12:47:53.170Z,3.10
2019-01-02T12:50:23.439Z,3.77
2019-01-02T12:52:53.634Z,3.70
2019-01-02T12:55:25.153Z,3.67
2019-01-02T12:57:55.418Z,2.97
2019-01-02T13:00:28.073Z,3.80
2019-01-02T13:03:42.448Z,3.17
2019-01-02T13:07:02.881Z,2.80
2019-01-02T13:09:45.651Z,3.27
2019-01-02T13:12:47.298Z,3.70
2019-01-02T13:16:12.899Z,5.40
2019-01-02T13:19:33.562Z,3.30
2019-01-02T13:22:44.746Z,2.97
2019-01-02T13:25:27.820Z,2.93
2019-01-02T13:28:36.654Z,2.40
2019-01-02T13:31:41.724Z,2.40
2019-01-02T13:35:06.417Z,2.03
2019-01-02T13:38:06.872Z,2.67
2019-01-02T13:41:27.262Z,2.60
2019-01-02T13:44:18.314Z,2.87
2019-01-02T13:47:51.066Z,2.67
2019-01-02T13:50:58.118Z,2.37
2019-01-02T13:53:28.380Z,2.10
2019-01-02T13:55:58.720Z,2.67
2019-01-02T13:58:29.060Z,2.60
2019-01-02T14:00:59.548Z,2.17
2019-01-02T14:03:30.750Z,2.20
2019-01-02T14:06:01.194Z,2.03
2019-01-02T14:08:31.759Z,2.20
2019-01-02T14:11:02.193Z,2.23
2019-01-02T14:13:32.448Z,2.13
2019-01-02T14:16:02.878Z,2.13
2019-01-02T14:18:33.210Z,2.27
2019-01-02T14:21:04.667Z,2.20
2019-01-02T14:23:35.149Z,2.23
2019-01-02T14:26:05.510Z,2.30
2019-01-02T14:28:36.176Z,2.40
2019-01-02T14:31:06.823Z,2.40
2019-01-02T14:33:38.783Z,2.33
2019-01-02T14:36:09.059Z,2.17
2019-01-02T14:38:39.636Z,2.40
2019-01-02T14:41:09.916Z,1.73
2019-01-02T14:43:40.242Z,2.23
2019-01-02T14:46:10.622Z,2.20
2019-01-02T14:48:41.096Z,2.20
2019-01-02T14:51:11.548Z,2.47
2019-01-02T14:53:41.830Z,2.13
2019-01-02T14:56:13.962Z,2.47
2019-01-02T14:58:44.343Z,2.03
2019-01-02T15:01:14.977Z,2.37
2019-01-02T15:03:45.324Z,2.20
2019-01-02T15:06:15.687Z,2.13
2019-01-02T15:08:45.967Z,2.40
2019-01-02T15:11:16.673Z,2.30
2019-01-02T15:13:47.020Z,2.17
2019-01-02T15:16:17.295Z,2.53
2019-01-02T15:18:47.808Z,2.20
2019-01-02T15:21:18.135Z,2.70
2019-01-02T15:23:48.574Z,2.27
2019-01-02T15:26:19.259Z,2.27
2019-01-02T15:28:49.582Z,2.40
2019-01-02T15:31:19.883Z,2.10
2019-01-02T15:33:50.165Z,1.67
2019-01-02T15:36:20.549Z,2.30
2019-01-02T15:38:50.811Z,1.93
2019-01-02T15:41:21.107Z,2.17
2019-01-02T15:43:51.810Z,1.90
2019-01-02T15:46:22.243Z,1.90
2019-01-02T15:48:53.820Z,2.07
2019-01-02T15:51:24.449Z,2.07
2019-01-02T15:53:54.873Z,1.93
2019-01-02T15:56:25.287Z,2.47
2019-01-02T15:58:55.570Z,2.70
2019-01-02T16:01:25.866Z,2.80
2019-01-02T16:03:56.379Z,2.67
2019-01-02T16:06:27.028Z,2.23
2019-01-02T16:08:57.320Z,2.33
2019-01-02T16:11:27.835Z,3.63
2019-01-02T16:13:58.305Z,3.03
2019-01-02T16:16:28.665Z,3.10
2019-01-02T16:18:59.079Z,3.40
2019-01-02T16:21:29.364Z,3.03
2019-01-02T16:23:59.667Z,3.00
2019-01-02T16:26:30.034Z,2.83
2019-01-02T16:29:00.465Z,3.03
2019-01-02T16:31:30.863Z,2.40
2019-01-02T16:34:01.274Z,2.80
2019-01-02T16:36:31.692Z,3.30
2019-01-02T16:39:02.343Z,2.73
2019-01-02T16:41:34.467Z,2.57
2019-01-02T16:44:04.832Z,2.70
2019-01-02T16:46:35.116Z,2.57
2019-01-02T16:49:05.443Z,2.87
2019-01-02T16:51:35.783Z,2.63
2019-01-02T16:54:06.048Z,1.83
2019-01-02T16:56:36.856Z,3.27
2019-01-02T16:59:07.148Z,2.70
2019-01-02T17:01:37.686Z,2.77
2019-01-02T17:04:07.978Z,3.10
2019-01-02T17:06:38.282Z,4.23
2019-01-02T17:09:09.618Z,2.87
2019-01-02T17:11:40.201Z,3.53
2019-01-02T17:14:10.533Z,2.90
2019-01-02T17:16:40.772Z,2.80
2019-01-02T17:19:11.094Z,3.40
2019-01-02T17:21:41.351Z,3.20
2019-01-02T17:24:11.803Z,3.10
2019-01-02T17:26:42.135Z,3.30
2019-01-02T17:29:12.446Z,3.53
2019-01-02T17:31:42.829Z,3.40
2019-01-02T17:34:13.229Z,3.90
2019-01-02T17:36:44.678Z,3.27
2019-01-02T17:39:15.046Z,3.57
2019-01-02T17:41:45.462Z,3.47
2019-01-02T17:44:16.670Z,3.60
2019-01-02T17:46:47.084Z,3.60
2019-01-02T17:49:17.479Z,3.03
2019-01-02T17:51:47.840Z,3.03
2019-01-02T17:54:18.227Z,2.97
2019-01-02T17:56:48.560Z,4.17
2019-01-02T17:59:18.994Z,3.40
2019-01-02T18:01:49.391Z,3.33
2019-01-02T18:04:19.725Z,3.80
2019-01-02T18:06:50.456Z,2.73
2019-01-02T18:09:20.779Z,3.10
2019-01-02T18:11:51.136Z,3.30
2019-01-02T18:14:21.453Z,3.20
2019-01-02T18:16:51.906Z,3.27
2019-01-02T18:19:22.257Z,3.93
2019-01-02T18:21:52.624Z,3.97
2019-01-02T18:24:22.926Z,3.00
2019-01-02T18:26:53.340Z,3.00
2019-01-02T18:29:23.664Z,3.23
2019-01-02T18:31:53.954Z,3.60
2019-01-02T18:34:24.281Z,3.80
2019-01-02T18:36:54.553Z,3.10
2019-01-02T18:39:24.899Z,3.67
2019-01-02T18:41:55.057Z,2.83
2019-01-02T18:44:25.333Z,3.30
2019-01-02T18:46:55.662Z,3.40
2019-01-02T18:49:27.086Z,3.00
2019-01-02T18:51:57.426Z,2.83
2019-01-02T18:54:27.746Z,3.33
2019-01-02T18:56:58.024Z,3.20
2019-01-02T18:59:28.308Z,3.53
2019-01-02T19:01:58.608Z,2.57
2019-01-02T19:04:28.836Z,3.77
2019-01-02T19:06:59.891Z,3.20
2019-01-02T19:09:30.162Z,3.13
2019-01-02T19:12:00.552Z,3.27
2019-01-02T19:14:30.758Z,2.97
2019-01-02T19:17:01.040Z,3.60
2019-01-02T19:19:31.417Z,2.97
2019-01-02T19:22:01.682Z,3.17
2019-01-02T19:24:32.010Z,3.50
2019-01-02T19:27:02.820Z,3.10
2019-01-02T19:29:33.123Z,3.33
2019-01-02T19:32:03.403Z,3.23
2019-01-02T19:34:33.812Z,2.97
2019-01-02T19:37:04.291Z,2.80
2019-01-02T19:39:34.641Z,2.70
2019-01-02T19:42:05.048Z,3.77
2019-01-02T19:44:35.369Z,2.43
2019-01-02T19:47:05.786Z,3.90
2019-01-02T19:49:36.071Z,4.00
2019-01-02T19:52:06.464Z,3.70
2019-01-02T19:54:36.825Z,4.17
2019-01-02T19:57:07.087Z,3.80
2019-01-02T19:59:37.411Z,3.47
2019-01-02T20:02:07.793Z,3.00
2019-01-02T20:04:38.187Z,3.87
2019-01-02T20:07:08.484Z,3.13
2019-01-02T20:09:39.245Z,3.97
2019-01-02T20:12:09.698Z,3.17
2019-01-02T20:14:40.410Z,3.33
2019-01-02T20:17:10.701Z,2.80
2019-01-02T20:19:41.027Z,2.80
2019-01-02T20:22:11.311Z,2.97
2019-01-02T20:24:41.677Z,3.23
2019-01-02T20:27:11.984Z,3.73
2019-01-02T20:29:42.238Z,2.63
2019-01-02T20:32:12.540Z,3.27
2019-01-02T20:34:42.969Z,3.40
2019-01-02T20:37:13.336Z,3.63
2019-01-02T20:39:43.737Z,3.37
2019-01-02T20:42:14.048Z,2.87
2019-01-02T20:44:44.415Z,2.70
2019-01-02T20:47:14.710Z,3.40
2019-01-02T20:49:44.982Z,3.13
2019-01-02T20:52:15.315Z,2.70
2019-01-02T20:54:45.788Z,3.10
2019-01-02T20:57:16.146Z,3.70
2019-01-02T20:59:46.554Z,3.30
2019-01-02T21:02:16.920Z,2.90
2019-01-02T21:04:47.327Z,2.80
2019-01-02T21:07:17.568Z,2.77
2019-01-02T21:09:47.900Z,2.63
2019-01-02T21:12:19.464Z,2.80
2019-01-02T21:14:50.142Z,3.00
2019-01-02T21:17:20.627Z,3.30
2019-01-02T21:19:50.993Z,3.40
2019-01-02T21:22:21.467Z,3.50
2019-01-02T21:24:51.807Z,2.83
2019-01-02T21:27:22.133Z,2.47
2019-01-02T21:29:52.424Z,2.37
2019-01-02T21:32:22.695Z,3.03
2019-01-02T21:34:53.003Z,3.73
2019-01-02T21:37:23.375Z,2.73
2019-01-02T21:39:53.661Z,2.80
2019-01-02T21:42:25.231Z,2.40
2019-01-02T21:44:55.742Z,2.33
2019-01-02T21:47:26.016Z,2.47
2019-01-02T21:49:57.408Z,2.40
2019-01-02T21:52:27.964Z,2.63
2019-01-02T21:54:58.298Z,2.60
2019-01-02T21:57:28.716Z,2.70
2019-01-02T21:59:59.114Z,2.67
2019-01-02T22:02:29.696Z,2.60
2019-01-02T22:05:00.083Z,3.00
2019-01-02T22:07:30.811Z,2.83
2019-01-02T22:10:01.178Z,2.30
2019-01-02T22:12:31.507Z,2.60
2019-01-02T22:15:01.879Z,2.77
2019-01-02T22:17:33.010Z,2.27
2019-01-02T22:20:03.337Z,2.33
2019-01-02T22:22:33.622Z,2.30
2019-01-02T22:25:03.987Z,2.37
2019-01-02T22:27:34.384Z,2.20
2019-01-02T22:30:07.939Z,2.33
2019-01-02T22:32:38.294Z,3.30
2019-01-02T22:35:10.454Z,2.80
2019-01-02T22:37:40.760Z,2.50
2019-01-02T22:40:11.114Z,2.07
2019-01-02T22:42:41.897Z,2.17
2019-01-02T22:45:12.346Z,2.57
2019-01-02T22:47:42.586Z,2.30
2019-01-02T22:50:12.892Z,1.93
2019-01-02T22:52:43.161Z,1.90
2019-01-02T22:55:13.683Z,1.90
2019-01-02T22:57:44.038Z,2.10
2019-01-02T23:00:35.445Z,2.10
2019-01-02T23:03:25.098Z,2.53
2019-01-02T23:06:13.370Z,2.20
2019-01-02T23:09:14.686Z,2.30
2019-01-02T23:12:04.224Z,1.73
2019-01-02T23:14:59.345Z,2.27
2019-01-02T23:17:47.724Z,2.13
2019-01-02T23:20:40.003Z,1.50
2019-01-02T23:23:28.148Z,1.93
2019-01-02T23:26:16.065Z,1.77
2019-01-02T23:29:01.839Z,1.70
2019-01-02T23:31:49.991Z,1.50
2019-01-02T23:34:48.340Z,2.00
2019-01-02T23:37:43.599Z,1.90
2019-01-02T23:56:03.675Z,2.60
2019-01-02T23:58:55.877Z,2.10
